CSZ634 RKSI-ZGSZ
Flight info
| Callsign | CSZ634 |
|---|---|
| Flight time | 3h 48m |
| Altitude | 36000 |
| Route | BOPTA2Y BOPTA Z51 BEDES Y711 PONIK A593 LAMEN/K0852F360 A593 AKARA/K0854S1100 A593 PUD A599 NXD W131 AKDIM A470 DUBGO W134 ELNEX A599 PLT W19 ATKAV W20 SALIV R473 NOLON W90 POU SAREX9XA |
| Aircraft | B738/M-SDE2E3FGHIRWXY/LB1 |
Departure
| Time | 2026-04-07 10:43 |
|---|---|
| Airport | Incheon International Airport (RKSI) |
Arrival
| Time | 2026-04-07 14:31 |
|---|---|
| Airport | Shenzhen Bao'an International Airport (ZGSZ) |
| Time | Latitude | Longitude | Altitude | Speed | Heading |
|---|---|---|---|---|---|
| 2026-04-07 10:25 | 37.44976 | 126.44509 | 31 ft | 0 kts | 57° |
| 2026-04-07 10:31 | 37.44975 | 126.44509 | 31 ft | 0 kts | 57° |
| 2026-04-07 10:31 | 37.44976 | 126.44509 | 31 ft | 0 kts | 57° |
| 2026-04-07 10:31 | 37.44975 | 126.44509 | 31 ft | 0 kts | 57° |
| 2026-04-07 10:33 | 37.44969 | 126.44495 | 31 ft | 4 kts | 56° |
| 2026-04-07 10:33 | 37.44953 | 126.44468 | 29 ft | 4 kts | 52° |
| 2026-04-07 10:33 | 37.44937 | 126.44442 | 30 ft | 4 kts | 59° |
| 2026-04-07 10:33 | 37.44930 | 126.44412 | 30 ft | 4 kts | 99° |
| 2026-04-07 10:34 | 37.44940 | 126.44384 | 30 ft | 2 kts | 128° |
| 2026-04-07 10:34 | 37.44943 | 126.44380 | 31 ft | 2 kts | 128° |
| 2026-04-07 10:35 | 37.44943 | 126.44379 | 31 ft | 0 kts | 128° |
| 2026-04-07 10:36 | 37.44942 | 126.44381 | 30 ft | 1 kts | 128° |
| 2026-04-07 10:36 | 37.44935 | 126.44392 | 28 ft | 3 kts | 129° |
| 2026-04-07 10:37 | 37.44924 | 126.44409 | 31 ft | 4 kts | 128° |
| 2026-04-07 10:37 | 37.44890 | 126.44466 | 29 ft | 8 kts | 126° |
| 2026-04-07 10:37 | 37.44857 | 126.44527 | 31 ft | 9 kts | 124° |
| 2026-04-07 10:37 | 37.44819 | 126.44593 | 30 ft | 9 kts | 127° |
| 2026-04-07 10:38 | 37.44782 | 126.44617 | 30 ft | 9 kts | 178° |
| 2026-04-07 10:38 | 37.44721 | 126.44601 | 31 ft | 9 kts | 197° |
| 2026-04-07 10:38 | 37.44662 | 126.44583 | 31 ft | 9 kts | 189° |
| 2026-04-07 10:38 | 37.44603 | 126.44575 | 31 ft | 8 kts | 183° |
| 2026-04-07 10:39 | 37.44546 | 126.44577 | 31 ft | 8 kts | 169° |
| 2026-04-07 10:39 | 37.44532 | 126.44581 | 31 ft | 0 kts | 171° |
| 2026-04-07 10:39 | 37.44530 | 126.44578 | 31 ft | 1 kts | 204° |
| 2026-04-07 10:39 | 37.44531 | 126.44571 | 31 ft | 2 kts | 269° |
| 2026-04-07 10:40 | 37.44543 | 126.44545 | 31 ft | 7 kts | 299° |
| 2026-04-07 10:40 | 37.44527 | 126.44485 | 31 ft | 9 kts | 235° |
| 2026-04-07 10:40 | 37.44489 | 126.44417 | 31 ft | 10 kts | 235° |
| 2026-04-07 10:40 | 37.44446 | 126.44341 | 31 ft | 11 kts | 235° |
| 2026-04-07 10:41 | 37.44404 | 126.44266 | 11 ft | 10 kts | 235° |
| 2026-04-07 10:41 | 37.44365 | 126.44196 | 30 ft | 7 kts | 234° |
| 2026-04-07 10:41 | 37.44360 | 126.44153 | 30 ft | 5 kts | 301° |
| 2026-04-07 10:41 | 37.44390 | 126.44122 | 30 ft | 6 kts | 324° |
| 2026-04-07 10:42 | 37.44470 | 126.44052 | 30 ft | 35 kts | 324° |
| 2026-04-07 10:42 | 37.44859 | 126.43700 | 30 ft | 101 kts | 324° |
| 2026-04-07 10:42 | 37.45590 | 126.43040 | 40 ft | 154 kts | 324° |
| 2026-04-07 10:42 | 37.46528 | 126.42245 | 586 ft | 163 kts | 322° |
| 2026-04-07 10:43 | 37.47400 | 126.41431 | 1566 ft | 151 kts | 318° |
| 2026-04-07 10:43 | 37.48038 | 126.40392 | 2422 ft | 150 kts | 302° |
| 2026-04-07 10:43 | 37.48720 | 126.39351 | 3250 ft | 155 kts | 312° |
| 2026-04-07 10:43 | 37.49460 | 126.38267 | 3643 ft | 175 kts | 311° |
| 2026-04-07 10:44 | 37.50178 | 126.36919 | 3848 ft | 196 kts | 292° |
| 2026-04-07 10:44 | 37.50457 | 126.35147 | 3998 ft | 218 kts | 276° |
| 2026-04-07 10:44 | 37.50518 | 126.33144 | 4174 ft | 240 kts | 274° |
| 2026-04-07 10:44 | 37.50549 | 126.31003 | 4586 ft | 253 kts | 274° |
| 2026-04-07 10:45 | 37.50587 | 126.28757 | 5147 ft | 259 kts | 274° |
| 2026-04-07 10:45 | 37.50633 | 126.26495 | 5875 ft | 259 kts | 274° |
| 2026-04-07 10:45 | 37.50684 | 126.24220 | 6563 ft | 261 kts | 274° |
| 2026-04-07 10:45 | 37.50736 | 126.21932 | 7238 ft | 263 kts | 274° |
| 2026-04-07 10:46 | 37.50405 | 126.19649 | 7895 ft | 272 kts | 248° |
| 2026-04-07 10:46 | 37.49236 | 126.17750 | 8598 ft | 282 kts | 221° |
| 2026-04-07 10:46 | 37.47476 | 126.16569 | 9300 ft | 291 kts | 204° |
| 2026-04-07 10:46 | 37.45563 | 126.15689 | 9984 ft | 295 kts | 203° |
| 2026-04-07 10:47 | 37.43585 | 126.14824 | 10382 ft | 312 kts | 198° |
| 2026-04-07 10:47 | 37.41329 | 126.14674 | 10524 ft | 341 kts | 171° |
| 2026-04-07 10:47 | 37.39085 | 126.15898 | 10708 ft | 364 kts | 142° |
| 2026-04-07 10:47 | 37.37338 | 126.18241 | 11171 ft | 372 kts | 127° |
| 2026-04-07 10:48 | 37.35722 | 126.20818 | 11745 ft | 378 kts | 128° |
| 2026-04-07 10:48 | 37.34030 | 126.23378 | 12321 ft | 385 kts | 130° |
| 2026-04-07 10:48 | 37.32266 | 126.25943 | 12923 ft | 391 kts | 131° |
| 2026-04-07 10:48 | 37.30456 | 126.28530 | 13533 ft | 397 kts | 131° |
| 2026-04-07 10:49 | 37.28615 | 126.31150 | 14121 ft | 403 kts | 131° |
| 2026-04-07 10:49 | 37.26748 | 126.33806 | 14699 ft | 408 kts | 131° |
| 2026-04-07 10:49 | 37.24858 | 126.36498 | 15305 ft | 413 kts | 131° |
| 2026-04-07 10:49 | 37.22964 | 126.39198 | 15907 ft | 417 kts | 131° |
| 2026-04-07 10:50 | 37.21037 | 126.41942 | 16506 ft | 423 kts | 132° |
| 2026-04-07 10:50 | 37.18838 | 126.44408 | 17034 ft | 426 kts | 150° |
| 2026-04-07 10:50 | 37.16163 | 126.45947 | 17650 ft | 423 kts | 163° |
| 2026-04-07 10:50 | 37.13377 | 126.47206 | 18268 ft | 428 kts | 165° |
| 2026-04-07 10:51 | 37.10555 | 126.48472 | 18763 ft | 433 kts | 164° |
| 2026-04-07 10:51 | 37.07714 | 126.49787 | 19290 ft | 437 kts | 164° |
| 2026-04-07 10:51 | 37.04864 | 126.51134 | 19850 ft | 439 kts | 164° |
| 2026-04-07 10:51 | 37.01973 | 126.52395 | 20388 ft | 440 kts | 168° |
| 2026-04-07 10:52 | 36.99015 | 126.53394 | 20904 ft | 441 kts | 172° |
| 2026-04-07 10:52 | 36.96023 | 126.54295 | 21414 ft | 444 kts | 172° |
| 2026-04-07 10:52 | 36.93011 | 126.55214 | 21923 ft | 448 kts | 172° |
| 2026-04-07 10:52 | 36.89976 | 126.56188 | 22436 ft | 452 kts | 171° |
| 2026-04-07 10:53 | 36.86930 | 126.57192 | 22928 ft | 455 kts | 171° |
| 2026-04-07 10:53 | 36.83855 | 126.58208 | 23410 ft | 458 kts | 171° |
| 2026-04-07 10:53 | 36.80880 | 126.59185 | 23852 ft | 461 kts | 171° |
| 2026-04-07 10:53 | 36.77764 | 126.60205 | 24254 ft | 463 kts | 172° |
| 2026-04-07 10:54 | 36.74687 | 126.61210 | 24665 ft | 465 kts | 172° |
| 2026-04-07 10:54 | 36.71546 | 126.62242 | 25058 ft | 468 kts | 172° |
| 2026-04-07 10:54 | 36.68359 | 126.63307 | 25443 ft | 470 kts | 172° |
| 2026-04-07 10:54 | 36.65229 | 126.64362 | 25797 ft | 473 kts | 172° |
| 2026-04-07 10:55 | 36.62040 | 126.65439 | 26161 ft | 476 kts | 172° |
| 2026-04-07 10:55 | 36.58801 | 126.66531 | 26524 ft | 478 kts | 172° |
| 2026-04-07 10:55 | 36.55621 | 126.67600 | 26879 ft | 480 kts | 172° |
| 2026-04-07 10:55 | 36.52352 | 126.68697 | 27233 ft | 483 kts | 173° |
| 2026-04-07 10:56 | 36.49141 | 126.69772 | 27568 ft | 485 kts | 173° |
| 2026-04-07 10:56 | 36.45869 | 126.70868 | 27895 ft | 488 kts | 173° |
| 2026-04-07 10:56 | 36.42593 | 126.71963 | 28216 ft | 490 kts | 173° |
| 2026-04-07 10:56 | 36.39290 | 126.73066 | 28544 ft | 492 kts | 173° |
| 2026-04-07 10:57 | 36.35983 | 126.74173 | 28845 ft | 495 kts | 173° |
| 2026-04-07 10:57 | 36.32648 | 126.75294 | 29135 ft | 497 kts | 173° |
| 2026-04-07 10:57 | 36.29298 | 126.76424 | 29447 ft | 499 kts | 173° |
| 2026-04-07 10:57 | 36.26186 | 126.77474 | 29712 ft | 501 kts | 173° |
| 2026-04-07 10:58 | 36.22818 | 126.78608 | 29986 ft | 504 kts | 174° |
| 2026-04-07 10:58 | 36.19426 | 126.79747 | 30250 ft | 506 kts | 174° |
| 2026-04-07 10:58 | 36.16022 | 126.80655 | 30504 ft | 496 kts | 182° |
| 2026-04-07 10:58 | 36.12627 | 126.80993 | 30886 ft | 481 kts | 191° |
| 2026-04-07 10:59 | 36.09344 | 126.80731 | 31335 ft | 467 kts | 197° |
| 2026-04-07 10:59 | 36.06132 | 126.80321 | 31728 ft | 464 kts | 197° |
| 2026-04-07 10:59 | 36.02918 | 126.79912 | 32047 ft | 464 kts | 197° |
| 2026-04-07 10:59 | 35.99704 | 126.79527 | 32361 ft | 463 kts | 197° |
| 2026-04-07 11:00 | 35.96505 | 126.79169 | 32733 ft | 462 kts | 197° |
| 2026-04-07 11:00 | 35.93309 | 126.78825 | 33104 ft | 459 kts | 197° |
| 2026-04-07 11:00 | 35.90137 | 126.78484 | 33448 ft | 458 kts | 197° |
| 2026-04-07 11:00 | 35.86959 | 126.78142 | 33757 ft | 457 kts | 197° |
| 2026-04-07 11:01 | 35.83806 | 126.77803 | 34061 ft | 456 kts | 197° |
| 2026-04-07 11:01 | 35.80647 | 126.77463 | 34334 ft | 455 kts | 197° |
| 2026-04-07 11:01 | 35.77490 | 126.77122 | 34538 ft | 455 kts | 197° |
| 2026-04-07 11:01 | 35.74339 | 126.76780 | 34706 ft | 456 kts | 197° |
| 2026-04-07 11:02 | 35.71213 | 126.76443 | 34911 ft | 457 kts | 197° |
| 2026-04-07 11:02 | 35.68006 | 126.76098 | 35143 ft | 456 kts | 197° |
| 2026-04-07 11:02 | 35.64852 | 126.75760 | 35348 ft | 456 kts | 197° |
| 2026-04-07 11:02 | 35.61727 | 126.75425 | 35525 ft | 457 kts | 197° |
| 2026-04-07 11:03 | 35.58567 | 126.75085 | 35705 ft | 457 kts | 197° |
| 2026-04-07 11:03 | 35.55395 | 126.74746 | 35920 ft | 457 kts | 197° |
| 2026-04-07 11:03 | 35.52238 | 126.74408 | 36123 ft | 456 kts | 197° |
| 2026-04-07 11:04 | 35.45869 | 126.73725 | 36159 ft | 460 kts | 197° |
| 2026-04-07 11:04 | 35.39519 | 126.73058 | 36157 ft | 456 kts | 197° |
| 2026-04-07 11:05 | 35.33226 | 126.72396 | 36155 ft | 452 kts | 197° |
| 2026-04-07 11:05 | 35.26984 | 126.71734 | 36159 ft | 449 kts | 197° |
| 2026-04-07 11:06 | 35.20772 | 126.71075 | 36169 ft | 448 kts | 198° |
| 2026-04-07 11:06 | 35.14573 | 126.70419 | 36161 ft | 448 kts | 198° |
| 2026-04-07 11:07 | 35.08347 | 126.69761 | 36163 ft | 449 kts | 198° |
| 2026-04-07 11:07 | 35.02120 | 126.69101 | 36165 ft | 451 kts | 198° |
| 2026-04-07 11:08 | 34.95854 | 126.68437 | 36160 ft | 452 kts | 198° |
| 2026-04-07 11:08 | 34.89570 | 126.67774 | 36154 ft | 454 kts | 198° |
| 2026-04-07 11:09 | 34.83269 | 126.67111 | 36160 ft | 455 kts | 198° |
| 2026-04-07 11:09 | 34.76953 | 126.66447 | 36163 ft | 456 kts | 198° |
| 2026-04-07 11:10 | 34.70623 | 126.65783 | 36149 ft | 456 kts | 198° |
| 2026-04-07 11:10 | 34.64312 | 126.65123 | 36161 ft | 454 kts | 198° |
| 2026-04-07 11:11 | 34.58022 | 126.64466 | 36156 ft | 453 kts | 198° |
| 2026-04-07 11:11 | 34.51761 | 126.63811 | 36160 ft | 451 kts | 198° |
| 2026-04-07 11:12 | 34.45520 | 126.63158 | 36161 ft | 449 kts | 198° |
| 2026-04-07 11:12 | 34.39316 | 126.62507 | 36168 ft | 446 kts | 198° |
| 2026-04-07 11:13 | 34.33136 | 126.61836 | 36161 ft | 446 kts | 198° |
| 2026-04-07 11:13 | 34.26965 | 126.61169 | 36160 ft | 445 kts | 198° |
| 2026-04-07 11:14 | 34.20791 | 126.60513 | 36163 ft | 446 kts | 198° |
| 2026-04-07 11:14 | 34.14610 | 126.59870 | 36163 ft | 446 kts | 198° |
| 2026-04-07 11:15 | 34.08455 | 126.59230 | 36173 ft | 447 kts | 198° |
| 2026-04-07 11:15 | 34.02259 | 126.58586 | 36175 ft | 447 kts | 198° |
| 2026-04-07 11:16 | 33.96053 | 126.57940 | 36175 ft | 448 kts | 197° |
| 2026-04-07 11:16 | 33.89834 | 126.57294 | 36176 ft | 449 kts | 197° |
| 2026-04-07 11:17 | 33.83654 | 126.56448 | 36160 ft | 438 kts | 205° |
| 2026-04-07 11:17 | 33.80947 | 126.55476 | 36175 ft | 424 kts | 212° |
| 2026-04-07 11:17 | 33.78185 | 126.54255 | 36167 ft | 424 kts | 212° |
| 2026-04-07 11:18 | 33.72655 | 126.51765 | 36167 ft | 425 kts | 212° |
| 2026-04-07 11:18 | 33.67103 | 126.49314 | 36170 ft | 426 kts | 212° |
| 2026-04-07 11:19 | 33.61529 | 126.46893 | 36177 ft | 426 kts | 212° |
| 2026-04-07 11:19 | 33.55937 | 126.44474 | 36181 ft | 427 kts | 212° |
| 2026-04-07 11:20 | 33.50351 | 126.42060 | 36180 ft | 427 kts | 212° |
| 2026-04-07 11:20 | 33.44762 | 126.39646 | 36180 ft | 427 kts | 211° |
| 2026-04-07 11:21 | 33.39163 | 126.37238 | 36179 ft | 428 kts | 211° |
| 2026-04-07 11:21 | 33.33545 | 126.34834 | 36163 ft | 428 kts | 211° |
| 2026-04-07 11:22 | 33.27933 | 126.32435 | 36170 ft | 428 kts | 211° |
| 2026-04-07 11:22 | 33.23274 | 126.30445 | 36169 ft | 428 kts | 211° |
| 2026-04-07 11:23 | 33.17654 | 126.28046 | 36157 ft | 428 kts | 211° |
| 2026-04-07 11:23 | 33.12051 | 126.25658 | 36165 ft | 428 kts | 211° |
| 2026-04-07 11:24 | 33.06453 | 126.23275 | 36166 ft | 427 kts | 211° |
| 2026-04-07 11:24 | 33.00861 | 126.20898 | 36175 ft | 427 kts | 211° |
| 2026-04-07 11:25 | 32.92485 | 126.17308 | 36177 ft | 426 kts | 211° |
| 2026-04-07 11:25 | 32.86899 | 126.14908 | 36182 ft | 426 kts | 211° |
| 2026-04-07 11:26 | 32.81318 | 126.12514 | 36180 ft | 427 kts | 211° |
| 2026-04-07 11:26 | 32.75729 | 126.10122 | 36181 ft | 427 kts | 211° |
| 2026-04-07 11:27 | 32.70134 | 126.07730 | 36185 ft | 428 kts | 211° |
| 2026-04-07 11:27 | 32.64531 | 126.05339 | 36183 ft | 428 kts | 211° |
| 2026-04-07 11:28 | 32.58911 | 126.02943 | 36184 ft | 429 kts | 211° |
| 2026-04-07 11:28 | 32.53292 | 126.00550 | 36180 ft | 430 kts | 211° |
| 2026-04-07 11:29 | 32.47665 | 125.98159 | 36182 ft | 430 kts | 211° |
| 2026-04-07 11:29 | 32.42031 | 125.95771 | 36183 ft | 430 kts | 211° |
| 2026-04-07 11:30 | 32.36422 | 125.93398 | 36183 ft | 430 kts | 210° |
| 2026-04-07 11:30 | 32.30748 | 125.90999 | 36181 ft | 430 kts | 210° |
| 2026-04-07 11:31 | 32.25115 | 125.88620 | 36182 ft | 430 kts | 210° |
| 2026-04-07 11:31 | 32.19485 | 125.86245 | 36191 ft | 430 kts | 210° |
| 2026-04-07 11:32 | 32.13887 | 125.83886 | 36189 ft | 429 kts | 210° |
| 2026-04-07 11:32 | 32.08267 | 125.81522 | 36176 ft | 429 kts | 210° |
| 2026-04-07 11:33 | 32.03003 | 125.78608 | 36186 ft | 402 kts | 230° |
| 2026-04-07 11:33 | 32.01112 | 125.76271 | 36185 ft | 389 kts | 240° |
| 2026-04-07 11:33 | 31.99687 | 125.73604 | 36192 ft | 383 kts | 251° |
| 2026-04-07 11:34 | 31.98107 | 125.67640 | 36188 ft | 384 kts | 259° |
| 2026-04-07 11:34 | 31.96810 | 125.61519 | 36188 ft | 387 kts | 259° |
| 2026-04-07 11:35 | 31.95484 | 125.55370 | 36191 ft | 388 kts | 259° |
| 2026-04-07 11:35 | 31.94121 | 125.49213 | 36186 ft | 389 kts | 259° |
| 2026-04-07 11:36 | 31.92742 | 125.43053 | 36189 ft | 388 kts | 259° |
| 2026-04-07 11:36 | 31.91363 | 125.36920 | 36194 ft | 387 kts | 259° |
| 2026-04-07 11:37 | 31.89985 | 125.30802 | 36194 ft | 386 kts | 259° |
| 2026-04-07 11:37 | 31.88608 | 125.24701 | 36198 ft | 385 kts | 259° |
| 2026-04-07 11:38 | 31.87230 | 125.18611 | 36198 ft | 384 kts | 259° |
| 2026-04-07 11:38 | 31.85854 | 125.12545 | 36196 ft | 383 kts | 259° |
| 2026-04-07 11:39 | 31.84479 | 125.06493 | 36197 ft | 383 kts | 259° |
| 2026-04-07 11:39 | 31.83102 | 125.00450 | 36203 ft | 383 kts | 259° |
| 2026-04-07 11:40 | 31.81766 | 124.94389 | 36204 ft | 382 kts | 260° |
| 2026-04-07 11:40 | 31.80465 | 124.88332 | 36202 ft | 383 kts | 260° |
| 2026-04-07 11:41 | 31.79157 | 124.82269 | 36204 ft | 383 kts | 260° |
| 2026-04-07 11:41 | 31.77840 | 124.76196 | 36204 ft | 384 kts | 259° |
| 2026-04-07 11:42 | 31.76513 | 124.70104 | 36206 ft | 385 kts | 259° |
| 2026-04-07 11:42 | 31.75181 | 124.64010 | 36203 ft | 386 kts | 259° |
| 2026-04-07 11:43 | 31.73845 | 124.57908 | 36204 ft | 386 kts | 259° |
| 2026-04-07 11:43 | 31.72502 | 124.51794 | 36209 ft | 387 kts | 259° |
| 2026-04-07 11:44 | 31.71152 | 124.45660 | 36204 ft | 388 kts | 259° |
| 2026-04-07 11:44 | 31.69800 | 124.39530 | 36202 ft | 388 kts | 260° |
| 2026-04-07 11:45 | 31.68442 | 124.33394 | 36204 ft | 389 kts | 259° |
| 2026-04-07 11:45 | 31.67082 | 124.27257 | 36212 ft | 389 kts | 260° |
| 2026-04-07 11:46 | 31.65715 | 124.21106 | 36209 ft | 389 kts | 259° |
| 2026-04-07 11:46 | 31.64355 | 124.15004 | 36211 ft | 389 kts | 259° |
| 2026-04-07 11:47 | 31.62975 | 124.08822 | 36208 ft | 389 kts | 259° |
| 2026-04-07 11:47 | 31.61600 | 124.02679 | 36212 ft | 389 kts | 259° |
| 2026-04-07 11:48 | 31.60240 | 123.96562 | 36213 ft | 389 kts | 260° |
| 2026-04-07 11:48 | 31.58899 | 123.90411 | 36216 ft | 390 kts | 260° |
| 2026-04-07 11:49 | 31.57556 | 123.84257 | 36211 ft | 390 kts | 260° |
| 2026-04-07 11:49 | 31.56208 | 123.78106 | 36213 ft | 390 kts | 260° |
| 2026-04-07 11:50 | 31.54855 | 123.71955 | 36214 ft | 390 kts | 260° |
| 2026-04-07 11:50 | 31.53497 | 123.65796 | 36212 ft | 390 kts | 260° |
| 2026-04-07 11:51 | 31.52139 | 123.59650 | 36211 ft | 390 kts | 260° |
| 2026-04-07 11:51 | 31.50779 | 123.53510 | 36211 ft | 389 kts | 260° |
| 2026-04-07 11:52 | 31.49447 | 123.47354 | 36212 ft | 389 kts | 261° |
| 2026-04-07 11:52 | 31.48286 | 123.41182 | 36214 ft | 388 kts | 262° |
| 2026-04-07 11:53 | 31.47144 | 123.35008 | 36215 ft | 388 kts | 262° |
| 2026-04-07 11:53 | 31.45984 | 123.28838 | 36215 ft | 388 kts | 261° |
| 2026-04-07 11:54 | 31.44811 | 123.22671 | 36211 ft | 388 kts | 261° |
| 2026-04-07 11:54 | 31.43639 | 123.16540 | 36212 ft | 388 kts | 261° |
| 2026-04-07 11:55 | 31.42457 | 123.10381 | 36216 ft | 388 kts | 261° |
| 2026-04-07 11:55 | 31.41266 | 123.04184 | 36213 ft | 388 kts | 261° |
| 2026-04-07 11:56 | 31.40080 | 122.98034 | 36215 ft | 387 kts | 261° |
| 2026-04-07 11:56 | 31.38898 | 122.91919 | 36215 ft | 387 kts | 261° |
| 2026-04-07 11:57 | 31.37709 | 122.85782 | 36218 ft | 387 kts | 261° |
| 2026-04-07 11:57 | 31.36518 | 122.79651 | 36218 ft | 386 kts | 261° |
| 2026-04-07 11:58 | 31.35336 | 122.73526 | 36216 ft | 386 kts | 262° |
| 2026-04-07 11:58 | 31.34169 | 122.67395 | 36215 ft | 385 kts | 262° |
| 2026-04-07 11:59 | 31.33002 | 122.61281 | 36213 ft | 385 kts | 262° |
| 2026-04-07 11:59 | 31.31831 | 122.55174 | 36215 ft | 385 kts | 262° |
| 2026-04-07 12:00 | 31.30659 | 122.49077 | 36218 ft | 384 kts | 262° |
| 2026-04-07 12:00 | 31.29484 | 122.42976 | 36216 ft | 384 kts | 262° |
| 2026-04-07 12:01 | 31.28342 | 122.36892 | 36206 ft | 383 kts | 262° |
| 2026-04-07 12:01 | 31.27193 | 122.30819 | 36210 ft | 382 kts | 262° |
| 2026-04-07 12:02 | 31.26056 | 122.24755 | 36217 ft | 382 kts | 262° |
| 2026-04-07 12:02 | 31.24921 | 122.18732 | 36210 ft | 381 kts | 262° |
| 2026-04-07 12:03 | 31.23781 | 122.12716 | 36205 ft | 381 kts | 262° |
| 2026-04-07 12:03 | 31.22633 | 122.06676 | 36201 ft | 380 kts | 262° |
| 2026-04-07 12:04 | 31.21487 | 122.00662 | 36197 ft | 379 kts | 262° |
| 2026-04-07 12:04 | 31.20332 | 121.94615 | 36187 ft | 379 kts | 262° |
| 2026-04-07 12:05 | 31.19191 | 121.88663 | 36183 ft | 378 kts | 262° |
| 2026-04-07 12:05 | 31.18042 | 121.82675 | 36186 ft | 377 kts | 262° |
| 2026-04-07 12:06 | 31.16991 | 121.76701 | 36183 ft | 374 kts | 266° |
| 2026-04-07 12:06 | 31.16330 | 121.70687 | 36182 ft | 373 kts | 267° |
| 2026-04-07 12:07 | 31.15692 | 121.64685 | 36184 ft | 372 kts | 267° |
| 2026-04-07 12:07 | 31.15038 | 121.58698 | 36188 ft | 372 kts | 267° |
| 2026-04-07 12:08 | 31.14375 | 121.52722 | 36188 ft | 371 kts | 267° |
| 2026-04-07 12:08 | 31.13710 | 121.46756 | 36186 ft | 370 kts | 267° |
| 2026-04-07 12:09 | 31.13043 | 121.40804 | 36181 ft | 370 kts | 267° |
| 2026-04-07 12:09 | 31.12486 | 121.35865 | 36188 ft | 369 kts | 266° |
| 2026-04-07 12:10 | 31.11295 | 121.30179 | 36194 ft | 374 kts | 259° |
| 2026-04-07 12:10 | 31.09755 | 121.24388 | 36191 ft | 373 kts | 259° |
| 2026-04-07 12:11 | 31.08239 | 121.18608 | 36185 ft | 372 kts | 259° |
| 2026-04-07 12:11 | 31.06753 | 121.12844 | 36177 ft | 370 kts | 261° |
| 2026-04-07 12:12 | 31.05355 | 121.07085 | 36178 ft | 368 kts | 261° |
| 2026-04-07 12:12 | 31.03969 | 121.01343 | 36177 ft | 367 kts | 261° |
| 2026-04-07 12:13 | 31.02576 | 120.95612 | 36175 ft | 367 kts | 261° |
| 2026-04-07 12:13 | 31.01181 | 120.89905 | 36171 ft | 366 kts | 261° |
| 2026-04-07 12:14 | 30.99786 | 120.84209 | 36171 ft | 365 kts | 261° |
| 2026-04-07 12:14 | 30.98391 | 120.78525 | 36171 ft | 365 kts | 261° |
| 2026-04-07 12:15 | 30.96996 | 120.72846 | 36168 ft | 364 kts | 261° |
| 2026-04-07 12:15 | 30.95612 | 120.67162 | 36164 ft | 364 kts | 261° |
| 2026-04-07 12:16 | 30.94229 | 120.61487 | 36166 ft | 364 kts | 261° |
| 2026-04-07 12:16 | 30.92843 | 120.55814 | 36164 ft | 364 kts | 261° |
| 2026-04-07 12:17 | 30.91454 | 120.50144 | 36161 ft | 364 kts | 261° |
| 2026-04-07 12:17 | 30.89368 | 120.44717 | 36165 ft | 381 kts | 246° |
| 2026-04-07 12:18 | 30.85929 | 120.39883 | 36144 ft | 395 kts | 232° |
| 2026-04-07 12:18 | 30.81426 | 120.36075 | 36157 ft | 401 kts | 228° |
| 2026-04-07 12:19 | 30.76850 | 120.32388 | 36156 ft | 399 kts | 228° |
| 2026-04-07 12:19 | 30.72334 | 120.28716 | 36157 ft | 398 kts | 229° |
| 2026-04-07 12:20 | 30.67817 | 120.25015 | 36154 ft | 397 kts | 229° |
| 2026-04-07 12:20 | 30.63308 | 120.21316 | 36150 ft | 398 kts | 228° |
| 2026-04-07 12:21 | 30.58778 | 120.17602 | 36153 ft | 399 kts | 228° |
| 2026-04-07 12:21 | 30.54235 | 120.13885 | 36161 ft | 401 kts | 228° |
| 2026-04-07 12:22 | 30.49672 | 120.10156 | 36159 ft | 402 kts | 228° |
| 2026-04-07 12:22 | 30.45091 | 120.06417 | 36159 ft | 404 kts | 227° |
| 2026-04-07 12:23 | 30.40291 | 120.02887 | 36150 ft | 413 kts | 223° |
| 2026-04-07 12:23 | 30.35283 | 119.99605 | 36147 ft | 414 kts | 222° |
| 2026-04-07 12:24 | 30.30267 | 119.96324 | 36149 ft | 414 kts | 222° |
| 2026-04-07 12:24 | 30.25263 | 119.93016 | 36144 ft | 414 kts | 222° |
| 2026-04-07 12:25 | 30.20270 | 119.89706 | 36140 ft | 413 kts | 222° |
| 2026-04-07 12:25 | 30.15287 | 119.86405 | 36150 ft | 413 kts | 222° |
| 2026-04-07 12:26 | 30.10309 | 119.83110 | 36148 ft | 412 kts | 222° |
| 2026-04-07 12:26 | 30.05330 | 119.79820 | 36130 ft | 412 kts | 222° |
| 2026-04-07 12:27 | 30.00373 | 119.76505 | 36131 ft | 410 kts | 222° |
| 2026-04-07 12:27 | 29.95451 | 119.73186 | 36131 ft | 410 kts | 222° |
| 2026-04-07 12:28 | 29.90535 | 119.69879 | 36135 ft | 409 kts | 222° |
| 2026-04-07 12:29 | 29.83254 | 119.64812 | 36137 ft | 403 kts | 226° |
| 2026-04-07 12:29 | 29.78641 | 119.61156 | 36133 ft | 402 kts | 226° |
| 2026-04-07 12:30 | 29.74016 | 119.57484 | 36123 ft | 404 kts | 226° |
| 2026-04-07 12:30 | 29.69379 | 119.53840 | 36126 ft | 404 kts | 226° |
| 2026-04-07 12:31 | 29.64740 | 119.50201 | 36125 ft | 403 kts | 227° |
| 2026-04-07 12:31 | 29.60749 | 119.45944 | 36133 ft | 386 kts | 238° |
| 2026-04-07 12:32 | 29.57213 | 119.41331 | 36127 ft | 388 kts | 238° |
| 2026-04-07 12:32 | 29.53603 | 119.36709 | 36124 ft | 390 kts | 237° |
| 2026-04-07 12:33 | 29.49934 | 119.32056 | 36122 ft | 392 kts | 237° |
| 2026-04-07 12:33 | 29.46293 | 119.27447 | 36115 ft | 393 kts | 237° |
| 2026-04-07 12:34 | 29.42596 | 119.22768 | 36115 ft | 394 kts | 237° |
| 2026-04-07 12:34 | 29.38933 | 119.18133 | 36118 ft | 395 kts | 237° |
| 2026-04-07 12:35 | 29.35239 | 119.13468 | 36103 ft | 395 kts | 237° |
| 2026-04-07 12:35 | 29.31545 | 119.08810 | 36114 ft | 395 kts | 237° |
| 2026-04-07 12:36 | 29.27856 | 119.04161 | 36099 ft | 394 kts | 237° |
| 2026-04-07 12:36 | 29.24168 | 118.99516 | 36095 ft | 394 kts | 237° |
| 2026-04-07 12:37 | 29.20498 | 118.94897 | 36091 ft | 392 kts | 237° |
| 2026-04-07 12:37 | 29.16832 | 118.90291 | 36091 ft | 392 kts | 237° |
| 2026-04-07 12:38 | 29.13161 | 118.85679 | 36085 ft | 392 kts | 237° |
| 2026-04-07 12:38 | 29.09485 | 118.81070 | 36073 ft | 393 kts | 237° |
| 2026-04-07 12:39 | 29.05799 | 118.76460 | 36087 ft | 392 kts | 237° |
| 2026-04-07 12:39 | 29.02125 | 118.71862 | 36063 ft | 392 kts | 237° |
| 2026-04-07 12:40 | 28.98439 | 118.67256 | 36076 ft | 393 kts | 237° |
| 2026-04-07 12:40 | 28.94769 | 118.62674 | 36073 ft | 394 kts | 237° |
| 2026-04-07 12:41 | 28.91038 | 118.58021 | 36072 ft | 395 kts | 236° |
| 2026-04-07 12:41 | 28.87320 | 118.53390 | 36058 ft | 396 kts | 236° |
| 2026-04-07 12:42 | 28.83589 | 118.48751 | 36068 ft | 398 kts | 236° |
| 2026-04-07 12:42 | 28.79871 | 118.44136 | 36056 ft | 397 kts | 236° |
| 2026-04-07 12:43 | 28.76134 | 118.39497 | 36052 ft | 398 kts | 236° |
| 2026-04-07 12:43 | 28.72394 | 118.34860 | 36050 ft | 397 kts | 236° |
| 2026-04-07 12:44 | 28.68654 | 118.30229 | 36045 ft | 397 kts | 236° |
| 2026-04-07 12:44 | 28.64915 | 118.25604 | 36052 ft | 397 kts | 236° |
| 2026-04-07 12:45 | 28.61169 | 118.20975 | 36040 ft | 397 kts | 236° |
| 2026-04-07 12:45 | 28.57433 | 118.16365 | 36036 ft | 397 kts | 236° |
| 2026-04-07 12:46 | 28.53690 | 118.11751 | 36033 ft | 396 kts | 236° |
| 2026-04-07 12:46 | 28.49954 | 118.07151 | 36034 ft | 396 kts | 236° |
| 2026-04-07 12:47 | 28.46220 | 118.02556 | 36024 ft | 396 kts | 236° |
| 2026-04-07 12:47 | 28.42477 | 117.97956 | 36019 ft | 397 kts | 236° |
| 2026-04-07 12:48 | 28.38682 | 117.93386 | 36022 ft | 398 kts | 234° |
| 2026-04-07 12:48 | 28.34857 | 117.88891 | 36020 ft | 398 kts | 234° |
| 2026-04-07 12:49 | 28.30990 | 117.84349 | 36018 ft | 397 kts | 234° |
| 2026-04-07 12:49 | 28.27158 | 117.79840 | 36023 ft | 397 kts | 234° |
| 2026-04-07 12:50 | 28.23332 | 117.75336 | 36017 ft | 397 kts | 234° |
| 2026-04-07 12:50 | 28.19494 | 117.70820 | 36003 ft | 397 kts | 234° |
| 2026-04-07 12:51 | 28.15661 | 117.66315 | 36005 ft | 398 kts | 234° |
| 2026-04-07 12:51 | 28.11817 | 117.61804 | 36009 ft | 399 kts | 234° |
| 2026-04-07 12:52 | 28.07961 | 117.57282 | 36011 ft | 400 kts | 234° |
| 2026-04-07 12:52 | 28.04089 | 117.52746 | 35999 ft | 400 kts | 234° |
| 2026-04-07 12:53 | 28.00253 | 117.48268 | 35995 ft | 398 kts | 234° |
| 2026-04-07 12:53 | 27.96385 | 117.43742 | 36002 ft | 397 kts | 234° |
| 2026-04-07 12:54 | 27.93181 | 117.39999 | 35984 ft | 399 kts | 234° |
| 2026-04-07 12:54 | 27.88716 | 117.34833 | 35980 ft | 394 kts | 233° |
| 2026-04-07 12:55 | 27.84920 | 117.30386 | 35995 ft | 394 kts | 234° |
| 2026-04-07 12:55 | 27.81076 | 117.25878 | 35994 ft | 403 kts | 234° |
| 2026-04-07 12:56 | 27.77810 | 117.22087 | 35982 ft | 406 kts | 233° |
| 2026-04-07 12:56 | 27.73222 | 117.16767 | 35993 ft | 405 kts | 233° |
| 2026-04-07 12:57 | 27.69937 | 117.12963 | 36009 ft | 406 kts | 233° |
| 2026-04-07 12:57 | 27.65329 | 117.07622 | 35987 ft | 410 kts | 234° |
| 2026-04-07 12:58 | 27.62025 | 117.03801 | 35968 ft | 405 kts | 233° |
| 2026-04-07 12:58 | 27.58122 | 116.99292 | 35969 ft | 401 kts | 233° |
| 2026-04-07 12:59 | 27.54225 | 116.94786 | 35969 ft | 402 kts | 233° |
| 2026-04-07 12:59 | 27.50330 | 116.90280 | 35968 ft | 402 kts | 234° |
| 2026-04-07 13:00 | 27.46453 | 116.85740 | 35961 ft | 402 kts | 234° |
| 2026-04-07 13:00 | 27.42581 | 116.81201 | 35970 ft | 402 kts | 234° |
| 2026-04-07 13:01 | 27.38699 | 116.76660 | 35960 ft | 403 kts | 234° |
| 2026-04-07 13:01 | 27.34806 | 116.72115 | 35969 ft | 404 kts | 234° |
| 2026-04-07 13:02 | 27.30895 | 116.67553 | 35965 ft | 405 kts | 234° |
| 2026-04-07 13:02 | 27.26988 | 116.63001 | 35974 ft | 405 kts | 233° |
| 2026-04-07 13:03 | 27.23074 | 116.58446 | 35966 ft | 406 kts | 233° |
| 2026-04-07 13:03 | 27.19166 | 116.53868 | 35960 ft | 406 kts | 234° |
| 2026-04-07 13:04 | 27.15328 | 116.49210 | 35957 ft | 406 kts | 234° |
| 2026-04-07 13:04 | 27.11498 | 116.44546 | 35953 ft | 406 kts | 234° |
| 2026-04-07 13:05 | 27.07665 | 116.39901 | 35955 ft | 406 kts | 234° |
| 2026-04-07 13:05 | 27.03831 | 116.35269 | 35960 ft | 405 kts | 234° |
| 2026-04-07 13:06 | 27.00001 | 116.30646 | 35962 ft | 404 kts | 234° |
| 2026-04-07 13:06 | 26.96167 | 116.26022 | 35962 ft | 404 kts | 234° |
| 2026-04-07 13:07 | 26.92337 | 116.21408 | 35955 ft | 405 kts | 234° |
| 2026-04-07 13:07 | 26.88520 | 116.16783 | 35965 ft | 404 kts | 234° |
| 2026-04-07 13:08 | 26.84709 | 116.12140 | 35958 ft | 404 kts | 234° |
| 2026-04-07 13:08 | 26.80927 | 116.07535 | 35950 ft | 405 kts | 234° |
| 2026-04-07 13:09 | 26.77120 | 116.02909 | 35944 ft | 404 kts | 234° |
| 2026-04-07 13:09 | 26.73310 | 115.98286 | 35966 ft | 404 kts | 234° |
| 2026-04-07 13:10 | 26.69492 | 115.93657 | 35954 ft | 405 kts | 234° |
| 2026-04-07 13:10 | 26.65661 | 115.89019 | 35958 ft | 405 kts | 233° |
| 2026-04-07 13:11 | 26.61834 | 115.84390 | 35932 ft | 406 kts | 233° |
| 2026-04-07 13:11 | 26.58004 | 115.79763 | 35935 ft | 405 kts | 233° |
| 2026-04-07 13:12 | 26.54180 | 115.75149 | 35952 ft | 405 kts | 233° |
| 2026-04-07 13:12 | 26.50350 | 115.70529 | 35948 ft | 405 kts | 233° |
| 2026-04-07 13:13 | 26.46517 | 115.65913 | 35942 ft | 406 kts | 233° |
| 2026-04-07 13:13 | 26.42679 | 115.61295 | 35949 ft | 407 kts | 233° |
| 2026-04-07 13:14 | 26.38823 | 115.56660 | 35953 ft | 409 kts | 233° |
| 2026-04-07 13:14 | 26.34941 | 115.51999 | 35954 ft | 411 kts | 233° |
| 2026-04-07 13:15 | 26.31041 | 115.47321 | 35947 ft | 411 kts | 233° |
| 2026-04-07 13:15 | 26.27146 | 115.42657 | 35944 ft | 411 kts | 233° |
| 2026-04-07 13:16 | 26.23252 | 115.37998 | 35938 ft | 411 kts | 233° |
| 2026-04-07 13:16 | 26.19364 | 115.33350 | 35941 ft | 410 kts | 233° |
| 2026-04-07 13:17 | 26.15499 | 115.28735 | 35939 ft | 409 kts | 233° |
| 2026-04-07 13:17 | 26.11620 | 115.24107 | 35943 ft | 409 kts | 233° |
| 2026-04-07 13:18 | 26.07746 | 115.19490 | 35946 ft | 408 kts | 233° |
| 2026-04-07 13:18 | 26.03872 | 115.14876 | 35944 ft | 408 kts | 232° |
| 2026-04-07 13:19 | 25.99985 | 115.10252 | 35948 ft | 409 kts | 233° |
| 2026-04-07 13:19 | 25.96101 | 115.05639 | 35942 ft | 409 kts | 232° |
| 2026-04-07 13:20 | 25.92208 | 115.01017 | 35941 ft | 410 kts | 232° |
| 2026-04-07 13:20 | 25.88310 | 114.96393 | 35946 ft | 410 kts | 232° |
| 2026-04-07 13:21 | 25.84407 | 114.91770 | 35940 ft | 411 kts | 232° |
| 2026-04-07 13:21 | 25.82259 | 114.89638 | 35934 ft | 419 kts | 221° |
| 2026-04-07 13:21 | 25.79761 | 114.87919 | 35946 ft | 426 kts | 214° |
| 2026-04-07 13:22 | 25.74101 | 114.85680 | 35953 ft | 440 kts | 200° |
| 2026-04-07 13:22 | 25.68103 | 114.84235 | 35939 ft | 442 kts | 199° |
| 2026-04-07 13:23 | 25.62076 | 114.82814 | 35938 ft | 442 kts | 200° |
| 2026-04-07 13:23 | 25.56063 | 114.81351 | 35931 ft | 443 kts | 200° |
| 2026-04-07 13:24 | 25.50054 | 114.79863 | 35929 ft | 442 kts | 200° |
| 2026-04-07 13:24 | 25.44051 | 114.78373 | 35928 ft | 442 kts | 200° |
| 2026-04-07 13:25 | 25.38041 | 114.76883 | 35931 ft | 442 kts | 200° |
| 2026-04-07 13:25 | 25.32085 | 114.75409 | 35926 ft | 442 kts | 200° |
| 2026-04-07 13:26 | 25.26089 | 114.73927 | 35923 ft | 442 kts | 199° |
| 2026-04-07 13:26 | 25.20059 | 114.72438 | 35928 ft | 441 kts | 199° |
| 2026-04-07 13:27 | 25.14070 | 114.70961 | 35923 ft | 441 kts | 199° |
| 2026-04-07 13:27 | 25.08111 | 114.69492 | 35931 ft | 441 kts | 199° |
| 2026-04-07 13:28 | 25.02119 | 114.68017 | 35927 ft | 442 kts | 199° |
| 2026-04-07 13:28 | 24.96118 | 114.66541 | 35925 ft | 442 kts | 199° |
| 2026-04-07 13:29 | 24.90109 | 114.65064 | 35928 ft | 443 kts | 199° |
| 2026-04-07 13:29 | 24.84080 | 114.63588 | 35930 ft | 443 kts | 199° |
| 2026-04-07 13:30 | 24.78053 | 114.62128 | 35922 ft | 444 kts | 199° |
| 2026-04-07 13:30 | 24.72032 | 114.60647 | 35928 ft | 441 kts | 202° |
| 2026-04-07 13:31 | 24.66496 | 114.58051 | 35930 ft | 428 kts | 216° |
| 2026-04-07 13:31 | 24.61365 | 114.54725 | 35926 ft | 428 kts | 216° |
| 2026-04-07 13:32 | 24.56222 | 114.51418 | 35924 ft | 429 kts | 216° |
| 2026-04-07 13:32 | 24.51042 | 114.48138 | 35912 ft | 430 kts | 216° |
| 2026-04-07 13:33 | 24.45850 | 114.44861 | 35912 ft | 431 kts | 215° |
| 2026-04-07 13:33 | 24.41363 | 114.40723 | 35931 ft | 417 kts | 235° |
| 2026-04-07 13:33 | 24.39706 | 114.38144 | 35928 ft | 413 kts | 244° |
| 2026-04-07 13:34 | 24.37479 | 114.32390 | 35928 ft | 410 kts | 251° |
| 2026-04-07 13:34 | 24.35407 | 114.26555 | 35923 ft | 412 kts | 251° |
| 2026-04-07 13:35 | 24.33285 | 114.20715 | 35912 ft | 411 kts | 250° |
| 2026-04-07 13:35 | 24.32236 | 114.17860 | 35886 ft | 397 kts | 250° |
| 2026-04-07 13:35 | 24.31222 | 114.15104 | 35900 ft | 382 kts | 250° |
| 2026-04-07 13:36 | 24.30257 | 114.12480 | 35911 ft | 369 kts | 251° |
| 2026-04-07 13:36 | 24.29269 | 114.09904 | 35888 ft | 357 kts | 245° |
| 2026-04-07 13:36 | 24.26310 | 114.05666 | 35911 ft | 351 kts | 229° |
| 2026-04-07 13:37 | 24.22260 | 114.02465 | 35925 ft | 368 kts | 218° |
| 2026-04-07 13:37 | 24.17863 | 113.99478 | 35916 ft | 373 kts | 218° |
| 2026-04-07 13:38 | 24.13466 | 113.96452 | 35907 ft | 374 kts | 218° |
| 2026-04-07 13:38 | 24.09266 | 113.93217 | 35886 ft | 365 kts | 232° |
| 2026-04-07 13:39 | 24.07748 | 113.90997 | 35904 ft | 358 kts | 244° |
| 2026-04-07 13:39 | 24.06745 | 113.88562 | 35910 ft | 354 kts | 255° |
| 2026-04-07 13:39 | 24.06224 | 113.85905 | 35903 ft | 352 kts | 266° |
| 2026-04-07 13:39 | 24.06267 | 113.83242 | 35899 ft | 351 kts | 278° |
| 2026-04-07 13:40 | 24.06890 | 113.80654 | 35899 ft | 353 kts | 290° |
| 2026-04-07 13:40 | 24.08070 | 113.78293 | 35903 ft | 358 kts | 303° |
| 2026-04-07 13:40 | 24.09739 | 113.76298 | 35897 ft | 364 kts | 315° |
| 2026-04-07 13:40 | 24.11870 | 113.74751 | 35895 ft | 372 kts | 328° |
| 2026-04-07 13:41 | 24.14335 | 113.73807 | 35904 ft | 382 kts | 342° |
| 2026-04-07 13:41 | 24.17023 | 113.73572 | 35896 ft | 394 kts | 356° |
| 2026-04-07 13:41 | 24.19752 | 113.74024 | 35904 ft | 403 kts | 10° |
| 2026-04-07 13:41 | 24.22366 | 113.75256 | 35907 ft | 414 kts | 24° |
| 2026-04-07 13:42 | 24.27255 | 113.78649 | 35910 ft | 417 kts | 27° |
| 2026-04-07 13:42 | 24.31309 | 113.81530 | 35902 ft | 418 kts | 26° |
| 2026-04-07 13:43 | 24.36962 | 113.85695 | 35876 ft | 427 kts | 41° |
| 2026-04-07 13:43 | 24.38219 | 113.87368 | 35927 ft | 433 kts | 53° |
| 2026-04-07 13:43 | 24.39545 | 113.90363 | 35898 ft | 441 kts | 72° |
| 2026-04-07 13:44 | 24.40059 | 113.93668 | 35905 ft | 442 kts | 90° |
| 2026-04-07 13:44 | 24.39380 | 113.98071 | 35917 ft | 438 kts | 115° |
| 2026-04-07 13:44 | 24.38486 | 114.00037 | 35932 ft | 433 kts | 128° |
| 2026-04-07 13:44 | 24.36555 | 114.02521 | 35923 ft | 424 kts | 146° |
| 2026-04-07 13:45 | 24.34126 | 114.04255 | 35920 ft | 411 kts | 163° |
| 2026-04-07 13:45 | 24.31450 | 114.05163 | 35913 ft | 398 kts | 179° |
| 2026-04-07 13:45 | 24.28728 | 114.05267 | 35930 ft | 386 kts | 193° |
| 2026-04-07 13:45 | 24.26120 | 114.04749 | 35911 ft | 378 kts | 205° |
| 2026-04-07 13:46 | 24.23744 | 114.03614 | 35923 ft | 369 kts | 216° |
| 2026-04-07 13:46 | 24.21557 | 114.02147 | 35920 ft | 368 kts | 219° |
| 2026-04-07 13:46 | 24.17249 | 113.99064 | 35907 ft | 372 kts | 218° |
| 2026-04-07 13:47 | 24.12873 | 113.96020 | 35904 ft | 374 kts | 218° |
| 2026-04-07 13:47 | 24.08753 | 113.92657 | 35911 ft | 363 kts | 236° |
| 2026-04-07 13:48 | 24.07409 | 113.90350 | 35906 ft | 357 kts | 248° |
| 2026-04-07 13:48 | 24.06581 | 113.87805 | 35910 ft | 354 kts | 259° |
| 2026-04-07 13:48 | 24.06274 | 113.85152 | 35904 ft | 352 kts | 270° |
| 2026-04-07 13:48 | 24.06534 | 113.82491 | 35906 ft | 352 kts | 283° |
| 2026-04-07 13:49 | 24.07380 | 113.79968 | 35896 ft | 355 kts | 295° |
| 2026-04-07 13:49 | 24.08782 | 113.77733 | 35904 ft | 360 kts | 308° |
| 2026-04-07 13:49 | 24.10681 | 113.75911 | 35902 ft | 367 kts | 321° |
| 2026-04-07 13:49 | 24.12979 | 113.74641 | 35893 ft | 377 kts | 335° |
| 2026-04-07 13:50 | 24.15574 | 113.74037 | 35900 ft | 388 kts | 350° |
| 2026-04-07 13:50 | 24.18300 | 113.74168 | 35911 ft | 397 kts | 3° |
| 2026-04-07 13:50 | 24.20980 | 113.75022 | 35889 ft | 410 kts | 19° |
| 2026-04-07 13:50 | 24.23483 | 113.76569 | 35919 ft | 414 kts | 26° |
| 2026-04-07 13:51 | 24.28331 | 113.80020 | 35915 ft | 416 kts | 27° |
| 2026-04-07 13:51 | 24.33218 | 113.83432 | 35911 ft | 417 kts | 26° |
| 2026-04-07 13:52 | 24.37676 | 113.87492 | 35927 ft | 432 kts | 52° |
| 2026-04-07 13:52 | 24.39039 | 113.90494 | 35905 ft | 440 kts | 71° |
| 2026-04-07 13:52 | 24.39555 | 113.93762 | 35906 ft | 442 kts | 90° |
| 2026-04-07 13:53 | 24.39182 | 113.97095 | 35919 ft | 440 kts | 109° |
| 2026-04-07 13:53 | 24.37947 | 114.00115 | 35923 ft | 433 kts | 129° |
| 2026-04-07 13:53 | 24.35983 | 114.02564 | 35915 ft | 423 kts | 147° |
| 2026-04-07 13:53 | 24.33536 | 114.04235 | 35922 ft | 410 kts | 165° |
| 2026-04-07 13:54 | 24.30839 | 114.05069 | 35919 ft | 397 kts | 181° |
| 2026-04-07 13:54 | 24.28120 | 114.05090 | 35927 ft | 386 kts | 194° |
| 2026-04-07 13:54 | 24.25538 | 114.04487 | 35917 ft | 377 kts | 207° |
| 2026-04-07 13:54 | 24.23207 | 114.03263 | 35926 ft | 369 kts | 217° |
| 2026-04-07 13:55 | 24.18874 | 114.00227 | 35912 ft | 371 kts | 219° |
| 2026-04-07 13:55 | 24.14523 | 113.97158 | 35914 ft | 373 kts | 218° |
| 2026-04-07 13:56 | 24.10138 | 113.94109 | 35884 ft | 367 kts | 224° |
| 2026-04-07 13:56 | 24.08415 | 113.92162 | 35921 ft | 351 kts | 239° |
| 2026-04-07 13:56 | 24.07239 | 113.89846 | 35910 ft | 348 kts | 251° |
| 2026-04-07 13:57 | 24.06337 | 113.84691 | 35908 ft | 349 kts | 272° |
| 2026-04-07 13:57 | 24.06702 | 113.82061 | 35910 ft | 352 kts | 285° |
| 2026-04-07 13:57 | 24.07656 | 113.79586 | 35910 ft | 358 kts | 298° |
| 2026-04-07 13:58 | 24.09182 | 113.77406 | 35906 ft | 365 kts | 311° |
| 2026-04-07 13:58 | 24.11209 | 113.75677 | 35914 ft | 375 kts | 324° |
| 2026-04-07 13:58 | 24.13633 | 113.74547 | 35905 ft | 386 kts | 339° |
| 2026-04-07 13:58 | 24.16332 | 113.74144 | 35897 ft | 398 kts | 354° |
| 2026-04-07 13:59 | 24.19110 | 113.74496 | 35911 ft | 409 kts | 8° |
| 2026-04-07 13:59 | 24.21788 | 113.75664 | 35914 ft | 420 kts | 24° |
| 2026-04-07 13:59 | 24.26713 | 113.79068 | 35911 ft | 422 kts | 27° |
| 2026-04-07 14:00 | 24.31637 | 113.82558 | 35898 ft | 420 kts | 26° |
| 2026-04-07 14:00 | 24.36447 | 113.86169 | 35881 ft | 427 kts | 42° |
| 2026-04-07 14:01 | 24.38210 | 113.88851 | 35921 ft | 434 kts | 61° |
| 2026-04-07 14:01 | 24.39183 | 113.91950 | 35914 ft | 438 kts | 79° |
| 2026-04-07 14:01 | 24.39311 | 113.95282 | 35918 ft | 437 kts | 99° |
| 2026-04-07 14:01 | 24.38550 | 113.98476 | 35934 ft | 434 kts | 118° |
| 2026-04-07 14:02 | 24.36973 | 114.01271 | 35924 ft | 429 kts | 137° |
| 2026-04-07 14:02 | 24.34750 | 114.03401 | 35923 ft | 421 kts | 155° |
| 2026-04-07 14:02 | 24.32133 | 114.04708 | 35912 ft | 409 kts | 172° |
| 2026-04-07 14:02 | 24.29369 | 114.05139 | 35922 ft | 395 kts | 188° |
| 2026-04-07 14:03 | 24.26679 | 114.04821 | 35927 ft | 386 kts | 200° |
| 2026-04-07 14:03 | 24.24183 | 114.03857 | 35911 ft | 376 kts | 214° |
| 2026-04-07 14:03 | 24.20183 | 114.01169 | 35915 ft | 372 kts | 219° |
| 2026-04-07 14:04 | 24.15866 | 113.98092 | 35553 ft | 368 kts | 218° |
| 2026-04-07 14:04 | 24.13712 | 113.96600 | 35311 ft | 364 kts | 218° |
| 2026-04-07 14:04 | 24.11583 | 113.95138 | 35063 ft | 359 kts | 217° |
| 2026-04-07 14:05 | 24.09536 | 113.93622 | 34823 ft | 355 kts | 223° |
| 2026-04-07 14:05 | 24.07631 | 113.91835 | 34615 ft | 366 kts | 227° |
| 2026-04-07 14:05 | 24.05734 | 113.89895 | 34425 ft | 380 kts | 227° |
| 2026-04-07 14:05 | 24.03779 | 113.87869 | 34216 ft | 394 kts | 227° |
| 2026-04-07 14:06 | 24.01745 | 113.85783 | 34006 ft | 408 kts | 226° |
| 2026-04-07 14:06 | 23.99631 | 113.83647 | 33778 ft | 420 kts | 226° |
| 2026-04-07 14:06 | 23.97451 | 113.81473 | 33524 ft | 427 kts | 225° |
| 2026-04-07 14:06 | 23.95243 | 113.79295 | 33257 ft | 426 kts | 225° |
| 2026-04-07 14:07 | 23.93049 | 113.77143 | 32991 ft | 422 kts | 225° |
| 2026-04-07 14:07 | 23.90872 | 113.75012 | 32730 ft | 418 kts | 225° |
| 2026-04-07 14:07 | 23.88711 | 113.72897 | 32478 ft | 415 kts | 225° |
| 2026-04-07 14:07 | 23.86564 | 113.70795 | 32212 ft | 413 kts | 225° |
| 2026-04-07 14:08 | 23.84437 | 113.68717 | 31983 ft | 408 kts | 225° |
| 2026-04-07 14:08 | 23.82336 | 113.66667 | 31601 ft | 404 kts | 224° |
| 2026-04-07 14:08 | 23.80074 | 113.64894 | 31074 ft | 408 kts | 213° |
| 2026-04-07 14:08 | 23.77485 | 113.63586 | 30545 ft | 412 kts | 205° |
| 2026-04-07 14:09 | 23.74729 | 113.62693 | 30084 ft | 416 kts | 196° |
| 2026-04-07 14:09 | 23.71937 | 113.62193 | 29613 ft | 414 kts | 194° |
| 2026-04-07 14:09 | 23.69095 | 113.61738 | 29116 ft | 411 kts | 193° |
| 2026-04-07 14:09 | 23.66278 | 113.61298 | 28606 ft | 408 kts | 193° |
| 2026-04-07 14:10 | 23.63479 | 113.60856 | 28093 ft | 405 kts | 193° |
| 2026-04-07 14:10 | 23.60703 | 113.60409 | 27588 ft | 402 kts | 193° |
| 2026-04-07 14:10 | 23.57943 | 113.59956 | 27094 ft | 400 kts | 193° |
| 2026-04-07 14:10 | 23.55198 | 113.59502 | 26626 ft | 397 kts | 193° |
| 2026-04-07 14:11 | 23.52480 | 113.59049 | 26160 ft | 395 kts | 193° |
| 2026-04-07 14:11 | 23.49775 | 113.58596 | 25703 ft | 392 kts | 193° |
| 2026-04-07 14:11 | 23.47088 | 113.58147 | 25249 ft | 386 kts | 193° |
| 2026-04-07 14:11 | 23.44450 | 113.57707 | 24586 ft | 382 kts | 193° |
| 2026-04-07 14:12 | 23.41823 | 113.57267 | 23846 ft | 382 kts | 193° |
| 2026-04-07 14:12 | 23.39195 | 113.56827 | 23093 ft | 380 kts | 193° |
| 2026-04-07 14:12 | 23.36589 | 113.56392 | 22367 ft | 376 kts | 193° |
| 2026-04-07 14:12 | 23.34020 | 113.55963 | 21709 ft | 371 kts | 193° |
| 2026-04-07 14:13 | 23.31478 | 113.55540 | 21031 ft | 367 kts | 193° |
| 2026-04-07 14:13 | 23.28963 | 113.55120 | 20346 ft | 364 kts | 193° |
| 2026-04-07 14:13 | 23.26479 | 113.54707 | 19960 ft | 356 kts | 193° |
| 2026-04-07 14:13 | 23.24050 | 113.54303 | 19615 ft | 352 kts | 193° |
| 2026-04-07 14:14 | 23.21608 | 113.53894 | 19005 ft | 358 kts | 192° |
| 2026-04-07 14:14 | 23.19141 | 113.53481 | 18518 ft | 359 kts | 192° |
| 2026-04-07 14:14 | 23.16713 | 113.53076 | 18150 ft | 356 kts | 192° |
| 2026-04-07 14:14 | 23.14246 | 113.52666 | 17751 ft | 353 kts | 192° |
| 2026-04-07 14:15 | 23.11831 | 113.52265 | 17334 ft | 350 kts | 192° |
| 2026-04-07 14:15 | 23.09463 | 113.51871 | 16891 ft | 345 kts | 192° |
| 2026-04-07 14:15 | 23.07110 | 113.51481 | 16282 ft | 341 kts | 192° |
| 2026-04-07 14:15 | 23.04766 | 113.51091 | 15579 ft | 340 kts | 192° |
| 2026-04-07 14:16 | 23.02435 | 113.50703 | 14941 ft | 338 kts | 192° |
| 2026-04-07 14:16 | 23.00125 | 113.50319 | 14474 ft | 331 kts | 191° |
| 2026-04-07 14:16 | 22.97918 | 113.49955 | 14347 ft | 313 kts | 191° |
| 2026-04-07 14:16 | 22.95787 | 113.49601 | 13914 ft | 308 kts | 191° |
| 2026-04-07 14:17 | 22.93672 | 113.49249 | 13333 ft | 307 kts | 191° |
| 2026-04-07 14:17 | 22.91567 | 113.48899 | 12799 ft | 305 kts | 191° |
| 2026-04-07 14:17 | 22.89486 | 113.48554 | 12302 ft | 301 kts | 192° |
| 2026-04-07 14:17 | 22.87430 | 113.48241 | 11806 ft | 298 kts | 189° |
| 2026-04-07 14:18 | 22.85359 | 113.48068 | 11362 ft | 300 kts | 187° |
| 2026-04-07 14:18 | 22.83288 | 113.47939 | 11100 ft | 296 kts | 186° |
| 2026-04-07 14:18 | 22.81241 | 113.47808 | 10828 ft | 293 kts | 187° |
| 2026-04-07 14:18 | 22.79211 | 113.47666 | 10510 ft | 292 kts | 187° |
| 2026-04-07 14:19 | 22.77183 | 113.47840 | 10170 ft | 298 kts | 166° |
| 2026-04-07 14:19 | 22.75392 | 113.48926 | 9877 ft | 304 kts | 141° |
| 2026-04-07 14:19 | 22.74143 | 113.50782 | 9559 ft | 310 kts | 115° |
| 2026-04-07 14:19 | 22.73709 | 113.53068 | 9244 ft | 312 kts | 89° |
| 2026-04-07 14:20 | 22.74151 | 113.55357 | 8956 ft | 311 kts | 70° |
| 2026-04-07 14:20 | 22.75164 | 113.57410 | 8609 ft | 309 kts | 49° |
| 2026-04-07 14:20 | 22.76832 | 113.58831 | 8310 ft | 303 kts | 22° |
| 2026-04-07 14:20 | 22.78802 | 113.59471 | 8015 ft | 297 kts | 8° |
| 2026-04-07 14:21 | 22.80833 | 113.59884 | 7661 ft | 298 kts | 7° |
| 2026-04-07 14:21 | 22.82875 | 113.60265 | 7313 ft | 298 kts | 7° |
| 2026-04-07 14:21 | 22.84911 | 113.60634 | 7010 ft | 296 kts | 7° |
| 2026-04-07 14:21 | 22.86948 | 113.60998 | 6713 ft | 295 kts | 7° |
| 2026-04-07 14:22 | 22.88968 | 113.61355 | 6420 ft | 294 kts | 7° |
| 2026-04-07 14:22 | 22.90983 | 113.61706 | 6111 ft | 293 kts | 7° |
| 2026-04-07 14:22 | 22.92987 | 113.62046 | 5833 ft | 290 kts | 7° |
| 2026-04-07 14:22 | 22.94890 | 113.62731 | 5503 ft | 292 kts | 34° |
| 2026-04-07 14:23 | 22.96186 | 113.64345 | 5228 ft | 288 kts | 67° |
| 2026-04-07 14:23 | 22.96659 | 113.66424 | 4968 ft | 282 kts | 84° |
| 2026-04-07 14:23 | 22.96686 | 113.68536 | 4677 ft | 277 kts | 107° |
| 2026-04-07 14:23 | 22.95755 | 113.70260 | 4612 ft | 259 kts | 141° |
| 2026-04-07 14:24 | 22.94198 | 113.71041 | 4540 ft | 242 kts | 174° |
| 2026-04-07 14:24 | 22.92559 | 113.71205 | 4475 ft | 231 kts | 177° |
| 2026-04-07 14:24 | 22.90987 | 113.71342 | 4413 ft | 223 kts | 177° |
| 2026-04-07 14:24 | 22.89485 | 113.71485 | 4317 ft | 216 kts | 176° |
| 2026-04-07 14:25 | 22.88009 | 113.71628 | 4198 ft | 210 kts | 176° |
| 2026-04-07 14:25 | 22.86559 | 113.71766 | 4000 ft | 209 kts | 176° |
| 2026-04-07 14:25 | 22.85114 | 113.71899 | 3860 ft | 204 kts | 176° |
| 2026-04-07 14:25 | 22.83748 | 113.72023 | 3824 ft | 191 kts | 176° |
| 2026-04-07 14:26 | 22.82467 | 113.72140 | 3678 ft | 184 kts | 176° |
| 2026-04-07 14:26 | 22.81195 | 113.72254 | 3410 ft | 184 kts | 176° |
| 2026-04-07 14:26 | 22.79936 | 113.72553 | 3072 ft | 187 kts | 163° |
| 2026-04-07 14:26 | 22.78695 | 113.73012 | 2737 ft | 188 kts | 160° |
| 2026-04-07 14:27 | 22.77536 | 113.73581 | 2577 ft | 180 kts | 156° |
| 2026-04-07 14:27 | 22.76433 | 113.74178 | 2355 ft | 176 kts | 155° |
| 2026-04-07 14:27 | 22.75356 | 113.74771 | 2142 ft | 171 kts | 155° |
| 2026-04-07 14:27 | 22.74302 | 113.75353 | 1920 ft | 167 kts | 155° |
| 2026-04-07 14:28 | 22.73292 | 113.75910 | 1714 ft | 157 kts | 155° |
| 2026-04-07 14:28 | 22.72376 | 113.76416 | 1556 ft | 142 kts | 155° |
| 2026-04-07 14:28 | 22.71509 | 113.76893 | 1352 ft | 137 kts | 155° |
| 2026-04-07 14:28 | 22.70653 | 113.77364 | 1167 ft | 138 kts | 155° |
| 2026-04-07 14:29 | 22.69791 | 113.77834 | 988 ft | 141 kts | 154° |
| 2026-04-07 14:29 | 22.68911 | 113.78319 | 831 ft | 144 kts | 153° |
| 2026-04-07 14:29 | 22.68010 | 113.78817 | 657 ft | 146 kts | 152° |
| 2026-04-07 14:29 | 22.67110 | 113.79312 | 468 ft | 145 kts | 154° |
| 2026-04-07 14:30 | 22.66209 | 113.79806 | 264 ft | 145 kts | 154° |
| 2026-04-07 14:30 | 22.65314 | 113.80301 | 59 ft | 144 kts | 154° |
| 2026-04-07 14:30 | 22.64482 | 113.80756 | 15 ft | 111 kts | 153° |
| 2026-04-07 14:30 | 22.63986 | 113.81027 | 16 ft | 53 kts | 155° |
| 2026-04-07 14:31 | 22.63669 | 113.81202 | 16 ft | 44 kts | 153° |
| 2026-04-07 14:31 | 22.63461 | 113.81252 | 14 ft | 27 kts | 181° |
| 2026-04-07 14:31 | 22.63325 | 113.81243 | 14 ft | 11 kts | 184° |
| 2026-04-07 14:31 | 22.63276 | 113.81240 | 14 ft | 11 kts | 184° |
| 2026-04-07 14:32 | 22.63204 | 113.81243 | 14 ft | 10 kts | 161° |
| 2026-04-07 14:32 | 22.63142 | 113.81257 | 16 ft | 7 kts | 208° |
| 2026-04-07 14:32 | 22.63125 | 113.81186 | 14 ft | 7 kts | 263° |
| 2026-04-07 14:32 | 22.63121 | 113.81151 | 14 ft | 7 kts | 263° |
| 2026-04-07 14:33 | 22.63114 | 113.81080 | 14 ft | 7 kts | 263° |
| 2026-04-07 14:33 | 22.63110 | 113.81046 | 14 ft | 7 kts | 263° |
| 2026-04-07 14:33 | 22.63105 | 113.80995 | 14 ft | 7 kts | 263° |
| 2026-04-07 14:33 | 22.63099 | 113.80946 | 14 ft | 7 kts | 263° |
| 2026-04-07 14:34 | 22.63081 | 113.80886 | 15 ft | 7 kts | 216° |
| 2026-04-07 14:34 | 22.63055 | 113.80880 | 14 ft | 5 kts | 182° |
| 2026-04-07 14:34 | 22.63034 | 113.80881 | 14 ft | 2 kts | 175° |
| 2026-04-07 14:34 | 22.63027 | 113.80882 | 14 ft | 0 kts | 174° |
| 2026-04-07 14:35 | 22.63026 | 113.80882 | 14 ft | 0 kts | 174° |